Time;durP1;ratioP1;P1;durP2;ratioP2;P2;SDS_P1;SDS_P2;PMS_P1;PMS_P2;Temp;Humidity;BMP_temperature;BMP_pressure;BME280_temperature;BME280_humidity;BME280_pressure;Samples;Min_cycle;Max_cycle;Signal;HPM_P1;HPM_P2
2024/04/19 00:00:35;;;;;;;6.80;2.15;;;;;;;-146.25;100.00;52429.03;2182694;27;33978;-73
2024/04/19 00:01:40;;;;;;;7.05;2.22;;;;;;;-146.25;100.00;52396.59;2183596;27;20003;-73
2024/04/19 00:02:42;;;;;;;4.57;2.00;;;;;;;-146.25;100.00;52398.59;2182768;27;32879;-74
2024/04/19 00:03:44;;;;;;;6.82;2.20;;;;;;;-146.25;100.00;52414.84;2182955;27;35926;-72
2024/04/19 00:04:46;;;;;;;6.90;2.42;;;;;;;-146.25;100.00;52388.47;2183172;27;33485;-73
2024/04/19 00:05:48;;;;;;;8.25;2.40;;;;;;;-146.25;100.00;52390.50;2182718;27;38666;-73
2024/04/19 00:07:06;;;;;;;7.28;2.67;;;;;;;-146.25;100.00;52368.19;2183310;27;20007;-72
2024/04/19 00:08:20;;;;;;;7.60;2.42;;;;;;;-146.25;100.00;52380.38;2184138;27;20014;-73
2024/04/19 00:09:22;;;;;;;9.13;2.20;;;;;;;-146.25;100.00;52354.00;2182199;27;34890;-73
2024/04/19 00:10:28;;;;;;;9.98;2.50;;;;;;;-146.25;100.00;52370.22;2183668;27;20003;-73
2024/04/19 00:11:30;;;;;;;7.72;2.13;;;;;;;-146.25;100.00;52431.06;2182017;27;36812;-73
2024/04/19 00:12:32;;;;;;;7.28;2.30;;;;;;;-146.25;100.00;52412.81;2183356;27;34482;-71
2024/04/19 00:13:34;;;;;;;6.90;2.17;;;;;;;-146.25;100.00;52384.41;2182421;27;33028;-73
2024/04/19 00:14:36;;;;;;;9.90;2.60;;;;;;;-146.25;100.00;52433.06;2181908;27;36641;-73
2024/04/19 00:15:42;;;;;;;5.68;2.47;;;;;;;-146.25;100.00;52388.47;2181596;27;35070;-72
2024/04/19 00:16:44;;;;;;;7.07;2.33;;;;;;;-146.25;100.00;52400.63;2182863;27;35648;-73
2024/04/19 00:17:46;;;;;;;8.80;2.20;;;;;;;-146.25;100.00;52412.81;2182417;27;32465;-73
2024/04/19 00:19:08;;;;;;;7.53;2.42;;;;;;;-146.25;100.00;52400.63;2183216;27;21140;-71
2024/04/19 00:20:10;;;;;;;8.88;2.72;;;;;;;-146.25;100.00;52404.69;2182605;27;35312;-73
2024/04/19 00:21:32;;;;;;;10.05;2.10;;;;;;;-146.25;100.00;52418.88;2183227;27;20023;-72
2024/04/19 00:22:36;;;;;;;4.70;2.13;;;;;;;-146.25;100.00;52416.84;2182801;27;35280;-73
2024/04/19 00:23:41;;;;;;;7.68;2.63;;;;;;;-146.25;100.00;52406.72;2182470;27;33913;-72
2024/04/19 00:24:43;;;;;;;7.45;2.15;;;;;;;-146.25;100.00;52376.31;2182843;27;34838;-73
2024/04/19 00:25:47;;;;;;;6.95;2.50;;;;;;;-146.25;100.00;52356.03;2187185;27;33646;-73
2024/04/19 00:26:49;;;;;;;5.70;2.50;;;;;;;-146.25;100.00;52382.38;2196468;26;38291;-73
2024/04/19 00:28:11;;;;;;;5.63;2.20;;;;;;;-146.25;100.00;52360.09;2197281;26;20024;-73
2024/04/19 00:29:15;;;;;;;10.05;2.63;;;;;;;-146.25;100.00;52394.56;2196900;26;35012;-72
2024/04/19 00:30:17;;;;;;;9.57;2.47;;;;;;;-146.25;100.00;52384.41;2197101;26;20065;-73
2024/04/19 00:31:19;;;;;;;6.72;2.55;;;;;;;-146.25;100.00;52368.19;2197471;26;32283;-73
2024/04/19 00:32:21;;;;;;;6.22;2.60;;;;;;;-146.25;100.00;52392.53;2197113;26;20136;-73
2024/04/19 00:33:23;;;;;;;5.55;2.65;;;;;;;-146.25;100.00;52386.44;2196976;26;35664;-73
2024/04/19 00:34:25;;;;;;;6.60;2.92;;;;;;;-146.25;100.00;52388.47;2197340;26;20008;-73
2024/04/19 00:35:27;;;;;;;7.95;2.85;;;;;;;-146.25;100.00;52416.84;2196986;26;35564;-72
2024/04/19 00:36:29;;;;;;;7.03;2.90;;;;;;;-146.25;100.00;52402.66;2196437;26;37595;-73
2024/04/19 00:37:33;;;;;;;7.82;3.00;;;;;;;-146.25;100.00;52372.25;2197716;26;20038;-73
2024/04/19 00:38:55;;;;;;;8.82;2.95;;;;;;;-146.25;100.00;52354.00;2197525;26;20112;-73
2024/04/19 00:39:57;;;;;;;7.90;2.78;;;;;;;-146.25;100.00;52396.59;2196706;27;33569;-73
2024/04/19 00:40:59;;;;;;;10.07;3.08;;;;;;;-146.25;100.00;52400.63;2196792;26;31276;-73
2024/04/19 00:42:01;;;;;;;7.78;2.80;;;;;;;-146.25;100.00;52406.72;2196599;26;32808;-72
2024/04/19 00:43:04;;;;;;;7.80;2.83;;;;;;;-146.25;100.00;52388.47;2196456;26;36899;-72
2024/04/19 00:44:08;;;;;;;9.77;2.63;;;;;;;-146.25;100.00;52424.97;2197594;26;20635;-73
2024/04/19 00:45:36;;;;;;;8.75;3.38;;;;;;;-146.25;100.00;52370.22;2196762;26;34960;-73
2024/04/19 00:46:38;;;;;;;6.05;3.10;;;;;;;-146.25;100.00;52382.38;2196655;26;33971;-72
2024/04/19 00:48:18;;;;;;;7.75;2.90;;;;;;;-146.25;100.00;52370.22;2197664;26;20009;-73
2024/04/19 00:49:27;;;;;;;7.70;2.72;;;;;;;-146.25;100.00;52422.94;2197421;26;20010;-73
2024/04/19 00:50:33;;;;;;;6.30;2.72;;;;;;;-146.25;100.00;52390.50;2196653;26;35641;-72
2024/04/19 00:51:38;;;;;;;5.10;2.90;;;;;;;-146.25;100.00;52392.53;2196099;26;30301;-73
2024/04/19 00:52:40;;;;;;;5.13;2.97;;;;;;;-146.25;100.00;52388.47;2197512;26;34782;-72
2024/04/19 00:53:42;;;;;;;6.82;3.08;;;;;;;-146.25;100.00;52388.47;2209959;26;36442;-73
2024/04/19 00:55:03;;;;;;;7.97;3.33;;;;;;;-146.25;100.00;52396.59;2197088;27;20009;-72
2024/04/19 00:56:08;;;;;;;8.05;3.13;;;;;;;-146.25;100.00;52408.75;2197214;26;32337;-73
2024/04/19 00:57:11;;;;;;;5.85;3.08;;;;;;;-146.25;100.00;52410.78;2195471;27;33041;-73
2024/04/19 00:58:14;;;;;;;7.15;3.13;;;;;;;-146.25;100.00;52376.31;2195922;27;38855;-72
2024/04/19 00:59:16;;;;;;;6.82;2.95;;;;;;;-146.25;100.00;52386.44;2196385;26;33747;-73
2024/04/19 01:00:18;;;;;;;6.68;3.20;;;;;;;-146.25;100.00;52412.81;2196806;26;34145;-73
2024/04/19 01:01:22;;;;;;;6.18;3.03;;;;;;;-146.25;100.00;52388.47;2195535;27;36347;-73
2024/04/19 01:02:24;;;;;;;5.47;2.95;;;;;;;-146.25;100.00;52368.19;2196984;26;32168;-73
2024/04/19 01:03:47;;;;;;;9.10;3.17;;;;;;;-146.25;100.00;52364.13;2196074;27;20115;-73
2024/04/19 01:04:49;;;;;;;6.07;3.20;;;;;;;-146.25;100.00;52408.75;2196874;26;20025;-73
2024/04/19 01:05:51;;;;;;;6.82;3.28;;;;;;;-146.25;100.00;52380.38;2195524;26;36267;-73
2024/04/19 01:07:02;;;;;;;6.40;3.40;;;;;;;-146.25;100.00;52384.41;2196767;26;21006;-73
2024/04/19 01:08:06;;;;;;;6.75;3.70;;;;;;;-146.25;100.00;52398.59;2196609;26;34838;-73
2024/04/19 01:09:08;;;;;;;9.95;4.13;;;;;;;-146.25;100.00;52382.38;2194856;27;36410;-73
2024/04/19 01:10:10;;;;;;;9.13;3.63;;;;;;;-146.25;100.00;52368.19;2195940;27;28168;-73
2024/04/19 01:11:12;;;;;;;8.27;4.03;;;;;;;-146.25;100.00;52390.50;2196592;26;34245;-64
2024/04/19 01:12:14;;;;;;;6.95;3.58;;;;;;;-146.25;100.00;52402.66;2196685;26;35354;-72
2024/04/19 01:13:16;;;;;;;7.53;4.05;;;;;;;-146.25;100.00;52364.13;2182417;27;20011;-73
2024/04/19 01:14:20;;;;;;;8.55;3.83;;;;;;;-146.25;100.00;52408.75;2183204;27;20144;-72
2024/04/19 01:15:23;;;;;;;6.57;3.72;;;;;;;-146.25;100.00;52416.84;2196661;26;33742;-72
2024/04/19 01:16:26;;;;;;;7.72;3.80;;;;;;;-146.25;100.00;52412.81;2197270;26;21258;-73
2024/04/19 01:17:28;;;;;;;8.25;4.00;;;;;;;-146.25;100.00;52358.06;2196860;26;31113;-72
2024/04/19 01:18:31;;;;;;;7.60;3.80;;;;;;;-146.25;100.00;52392.53;2197401;26;33597;-73
2024/04/19 01:19:33;;;;;;;7.35;4.30;;;;;;;-146.25;100.00;52392.53;2196708;26;29779;-72
2024/04/19 01:20:39;;;;;;;7.15;4.28;;;;;;;-146.25;100.00;52358.06;2196494;26;34603;-73
2024/04/19 01:21:41;;;;;;;6.38;4.43;;;;;;;-146.25;100.00;52412.81;2196747;26;32831;-73
2024/04/19 01:22:46;;;;;;;8.95;4.55;;;;;;;-146.25;100.00;52396.59;2196472;26;37368;-73
2024/04/19 01:23:53;;;;;;;9.80;4.80;;;;;;;-146.25;100.00;52378.34;2197042;26;33966;-70
2024/04/19 01:24:55;;;;;;;7.43;4.32;;;;;;;-146.25;100.00;52400.63;2196620;26;31672;-72
2024/04/19 01:26:04;;;;;;;8.70;4.45;;;;;;;-146.25;100.00;52384.41;2196383;26;32934;-72
2024/04/19 01:27:09;;;;;;;7.30;5.10;;;;;;;-146.25;100.00;52392.53;2196422;26;35526;-73
2024/04/19 01:28:12;;;;;;;6.85;4.65;;;;;;;-146.25;100.00;52382.38;2196639;26;29534;-72
2024/04/19 01:29:14;;;;;;;10.43;4.90;;;;;;;-146.25;100.00;52380.38;2196781;26;28865;-72
2024/04/19 01:30:16;;;;;;;8.32;4.95;;;;;;;-146.25;100.00;52396.59;2196324;26;33421;-72
2024/04/19 01:31:18;;;;;;;10.57;4.80;;;;;;;-146.25;100.00;52410.78;2196662;26;35773;-73
2024/04/19 01:32:20;;;;;;;7.40;4.82;;;;;;;-146.25;100.00;52390.50;2197203;26;20017;-70
2024/04/19 01:33:24;;;;;;;9.27;5.30;;;;;;;-146.25;100.00;52390.50;2196561;26;39731;-72
2024/04/19 01:34:26;;;;;;;8.88;5.18;;;;;;;-146.25;100.00;52378.34;2196507;26;32223;-71
2024/04/19 01:35:28;;;;;;;9.82;5.15;;;;;;;-146.25;100.00;52380.38;2197270;26;20013;-73
2024/04/19 01:36:30;;;;;;;7.57;5.50;;;;;;;-146.25;100.00;52378.34;2196489;26;34597;-71
2024/04/19 01:37:32;;;;;;;9.57;5.80;;;;;;;-146.25;100.00;52380.38;2196624;26;36234;-71
2024/04/19 01:38:34;;;;;;;7.28;4.88;;;;;;;-146.25;100.00;52384.41;2196953;26;20002;-71
2024/04/19 01:39:35;;;;;;;11.10;5.97;;;;;;;-146.25;100.00;52404.69;2196517;26;36547;-73
2024/04/19 01:40:37;;;;;;;10.95;5.72;;;;;;;-146.25;100.00;52366.16;2196693;26;37158;-72
2024/04/19 01:41:39;;;;;;;7.78;5.60;;;;;;;-146.25;100.00;52374.28;2196937;26;21022;-72
2024/04/19 01:42:41;;;;;;;11.43;5.97;;;;;;;-146.25;100.00;52404.69;2196398;26;35191;-72
2024/04/19 01:43:43;;;;;;;11.43;5.60;;;;;;;-146.25;100.00;52414.84;2196580;26;36025;-73
2024/04/19 01:44:45;;;;;;;11.05;5.78;;;;;;;-146.25;100.00;52396.59;2196313;27;33523;-70
2024/04/19 01:45:47;;;;;;;9.75;5.50;;;;;;;-146.25;100.00;52390.50;2196568;26;36588;-72
2024/04/19 01:46:49;;;;;;;9.68;5.47;;;;;;;-146.25;100.00;52360.09;2196450;26;33396;-72
2024/04/19 01:47:51;;;;;;;7.68;5.50;;;;;;;-146.25;100.00;52422.94;2197262;26;20020;-73
2024/04/19 01:48:53;;;;;;;9.32;6.10;;;;;;;-146.25;100.00;52360.09;2196238;26;37640;-69
2024/04/19 01:49:55;;;;;;;10.93;5.80;;;;;;;-146.25;100.00;52370.22;2196463;26;34161;-73
2024/04/19 01:50:57;;;;;;;10.88;6.32;;;;;;;-146.25;100.00;52360.09;2196388;26;36440;-72
2024/04/19 01:51:58;;;;;;;10.82;6.28;;;;;;;-146.25;100.00;52376.31;2196335;26;39662;-73
2024/04/19 01:53:00;;;;;;;10.65;6.00;;;;;;;-146.25;100.00;52368.19;2196508;26;34089;-71
2024/04/19 01:54:02;;;;;;;14.30;6.68;;;;;;;-146.25;100.00;52372.25;2196639;26;28496;-72
2024/04/19 01:55:04;;;;;;;9.20;5.72;;;;;;;-146.25;100.00;52410.78;2196335;26;36232;-72
2024/04/19 01:56:06;;;;;;;13.55;6.57;;;;;;;-146.25;100.00;52382.38;2196911;26;22689;-72
2024/04/19 01:57:14;;;;;;;10.55;6.95;;;;;;;-146.25;100.00;52384.41;2196778;26;20895;-73
2024/04/19 01:58:16;;;;;;;10.32;6.45;;;;;;;-146.25;100.00;52386.44;2196342;26;34423;-72
2024/04/19 01:59:18;;;;;;;12.98;6.90;;;;;;;-146.25;100.00;52368.19;2196861;26;20041;-73
2024/04/19 02:00:19;;;;;;;12.05;5.70;;;;;;;-146.25;100.00;52378.34;2193124;26;35968;-72
2024/04/19 02:01:21;;;;;;;8.20;6.10;;;;;;;-146.25;100.00;52412.81;2182243;27;33769;-71
2024/04/19 02:02:26;;;;;;;9.93;5.88;;;;;;;-146.25;100.00;52372.25;2182197;27;38565;-72
2024/04/19 02:03:28;;;;;;;10.40;5.65;;;;;;;-146.25;100.00;52364.13;2182543;27;34034;-71
2024/04/19 02:04:33;;;;;;;8.38;4.93;;;;;;;-146.25;100.00;52400.63;2182481;27;35951;-72
2024/04/19 02:05:35;;;;;;;5.65;4.43;;;;;;;-146.25;100.00;52356.03;2181926;27;35878;-71
2024/04/19 02:06:37;;;;;;;5.95;4.75;;;;;;;-146.25;100.00;52364.13;2182339;27;36456;-72
2024/04/19 02:07:59;;;;;;;7.72;4.55;;;;;;;-146.25;100.00;52408.75;2182694;27;20035;-72
2024/04/19 02:09:04;;;;;;;7.30;4.32;;;;;;;-146.25;100.00;52416.84;2183117;27;20999;-72
2024/04/19 02:10:07;;;;;;;5.32;4.07;;;;;;;-146.25;100.00;52396.59;2181905;27;38081;-72
2024/04/19 02:11:09;;;;;;;7.43;4.22;;;;;;;-146.25;100.00;52441.19;2182398;27;32689;-73
2024/04/19 02:12:12;;;;;;;6.45;4.65;;;;;;;-146.25;100.00;52396.59;2182421;27;31270;-73
2024/04/19 02:13:13;;;;;;;11.00;5.32;;;;;;;-146.25;100.00;52349.94;2182808;27;37136;-72
2024/04/19 02:14:16;;;;;;;6.78;5.03;;;;;;;-146.25;100.00;52378.34;2182061;27;37104;-72
2024/04/19 02:15:19;;;;;;;7.20;5.32;;;;;;;-146.25;100.00;52380.38;2182341;27;33400;-72
2024/04/19 02:16:21;;;;;;;7.88;5.13;;;;;;;-146.25;100.00;52433.06;2182672;27;20007;-72
2024/04/19 02:17:23;;;;;;;8.07;5.40;;;;;;;-146.25;100.00;52386.44;2182408;27;35775;-72
2024/04/19 02:18:26;;;;;;;7.45;4.75;;;;;;;-146.25;100.00;52394.56;2181783;27;35999;-72
2024/04/19 02:19:35;;;;;;;8.10;5.03;;;;;;;-146.25;100.00;52416.84;2181405;27;33988;-72
2024/04/19 02:20:42;;;;;;;8.18;5.00;;;;;;;-146.25;100.00;52380.38;2180496;27;36748;-72
2024/04/19 02:21:44;;;;;;;7.72;5.60;;;;;;;-146.25;100.00;52404.69;2182091;27;34460;-73
2024/04/19 02:22:46;;;;;;;6.78;4.30;;;;;;;-146.25;100.00;52360.09;2181400;27;35096;-72
2024/04/19 02:23:48;;;;;;;7.70;4.45;;;;;;;-146.25;100.00;52412.81;2182014;27;37189;-72
2024/04/19 02:24:49;;;;;;;8.00;4.40;;;;;;;-146.25;100.00;52424.97;2181842;27;35099;-72
2024/04/19 02:25:51;;;;;;;5.93;4.13;;;;;;;-146.25;100.00;52376.31;2189880;26;20009;-72
2024/04/19 02:26:53;;;;;;;5.30;3.90;;;;;;;-146.25;100.00;52370.22;2195709;26;36051;-71
2024/04/19 02:32:13;;;;;;;5.80;4.57;;;;;;;-146.25;100.00;52408.75;2195188;27;37566;-71
2024/04/19 02:33:18;;;;;;;5.45;4.13;;;;;;;-146.25;100.00;52396.59;2196288;26;21011;-73
2024/04/19 02:34:20;;;;;;;11.02;4.55;;;;;;;-146.25;100.00;52427.00;2196445;26;37507;-72
2024/04/19 02:35:22;;;;;;;7.22;4.45;;;;;;;-146.25;100.00;52386.44;2196009;26;34376;-72
2024/04/19 02:36:26;;;;;;;7.57;4.40;;;;;;;-146.25;100.00;52388.47;2195942;26;38287;-73
2024/04/19 02:37:28;;;;;;;6.25;4.72;;;;;;;-146.25;100.00;52390.50;2195639;26;36464;-72
2024/04/19 02:38:29;;;;;;;6.63;4.40;;;;;;;-146.25;100.00;52382.38;2196337;26;21130;-72
2024/04/19 02:39:33;;;;;;;8.15;4.63;;;;;;;-146.25;100.00;52384.41;2195388;26;40442;-72
2024/04/19 02:40:34;;;;;;;7.68;4.15;;;;;;;-146.25;100.00;52400.63;2196337;26;34644;-72
2024/04/19 02:41:39;;;;;;;9.55;4.85;;;;;;;-146.25;100.00;52384.41;2195619;26;38411;-72
2024/04/19 02:42:41;;;;;;;6.55;4.47;;;;;;;-146.25;100.00;52396.59;2196503;26;31596;-73
2024/04/19 02:43:46;;;;;;;5.93;4.70;;;;;;;-146.25;100.00;52372.25;2196017;26;32569;-72
2024/04/19 02:44:48;;;;;;;5.90;4.50;;;;;;;-146.25;100.00;52420.91;2196145;26;38538;-72
2024/04/19 02:45:50;;;;;;;6.80;4.50;;;;;;;-146.25;100.00;52380.38;2196427;26;35506;-72
2024/04/19 02:46:56;;;;;;;7.18;4.75;;;;;;;-146.25;100.00;52382.38;2196266;26;35897;-72
2024/04/19 02:47:58;;;;;;;8.38;4.60;;;;;;;-146.25;100.00;52384.41;2196207;26;28551;-72
2024/04/19 02:49:05;;;;;;;7.68;5.30;;;;;;;-146.25;100.00;52360.09;2197345;26;20139;-72
2024/04/19 02:50:07;;;;;;;7.38;4.82;;;;;;;-146.25;100.00;52394.56;2195799;26;36321;-72
2024/04/19 02:51:10;;;;;;;9.30;5.07;;;;;;;-146.25;100.00;52384.41;2196192;26;36555;-71
2024/04/19 02:52:12;;;;;;;9.13;4.80;;;;;;;-146.25;100.00;52392.53;2195963;26;35261;-71
2024/04/19 02:53:14;;;;;;;6.82;5.25;;;;;;;-146.25;100.00;52420.91;2196273;27;36141;-71
2024/04/19 02:54:20;;;;;;;7.82;4.68;;;;;;;-146.25;100.00;52351.97;2196832;26;20124;-72
2024/04/19 02:55:22;;;;;;;6.55;5.25;;;;;;;-146.25;100.00;52396.59;2196163;26;35224;-71
2024/04/19 02:56:24;;;;;;;7.32;5.25;;;;;;;-146.25;100.00;52368.19;2182278;27;21144;-72
2024/04/19 02:57:26;;;;;;;6.93;5.38;;;;;;;-146.25;100.00;52388.47;2181838;27;34435;-73
2024/04/19 02:58:28;;;;;;;9.18;5.55;;;;;;;-146.25;100.00;52408.75;2181701;27;36487;-72
2024/04/19 02:59:30;;;;;;;5.60;4.85;;;;;;;-146.25;100.00;52398.59;2182168;27;35098;-72
2024/04/19 03:00:31;;;;;;;8.07;5.82;;;;;;;-146.25;100.00;52356.03;2182298;27;35313;-72
2024/04/19 03:01:36;;;;;;;6.38;5.68;;;;;;;-146.25;100.00;52384.41;2182223;27;30206;-70
2024/04/19 03:02:38;;;;;;;7.68;5.43;;;;;;;-146.25;100.00;52372.25;2181604;27;37667;-72
2024/04/19 03:03:40;;;;;;;10.13;5.95;;;;;;;-146.25;100.00;52384.41;2182051;27;36963;-72
2024/04/19 03:04:42;;;;;;;8.98;6.03;;;;;;;-146.25;100.00;52394.56;2181951;27;26866;-72
2024/04/19 03:05:44;;;;;;;8.90;6.10;;;;;;;-146.25;100.00;52418.88;2182483;27;21038;-71
2024/04/19 03:06:47;;;;;;;8.07;6.05;;;;;;;-146.25;100.00;52396.59;2181523;27;36482;-72
2024/04/19 03:07:49;;;;;;;7.60;5.72;;;;;;;-146.25;100.00;52392.53;2182281;27;25254;-71
2024/04/19 03:08:50;;;;;;;7.20;5.65;;;;;;;-146.25;100.00;52396.59;2181804;27;33814;-72
2024/04/19 03:10:12;;;;;;;8.65;6.30;;;;;;;-146.25;100.00;52378.34;2182198;27;20011;-71
2024/04/19 03:11:14;;;;;;;7.95;6.03;;;;;;;-146.25;100.00;52366.16;2182486;27;20014;-72
2024/04/19 03:12:18;;;;;;;8.23;6.40;;;;;;;-146.25;100.00;52349.94;2181745;27;35702;-73
2024/04/19 03:13:20;;;;;;;10.43;6.70;;;;;;;-146.25;100.00;52392.53;2181971;27;33310;-73
2024/04/19 03:14:23;;;;;;;7.28;6.28;;;;;;;-146.25;100.00;52392.53;2182396;27;21034;-73
2024/04/19 03:15:25;;;;;;;8.27;6.22;;;;;;;-146.25;100.00;52351.97;2181938;27;32157;-73
2024/04/19 03:16:27;;;;;;;8.98;6.60;;;;;;;-146.25;100.00;52429.03;2181701;27;32550;-72
2024/04/19 03:17:31;;;;;;;8.57;6.55;;;;;;;-146.25;100.00;52388.47;2181960;27;36366;-73
2024/04/19 03:18:33;;;;;;;7.97;7.05;;;;;;;-146.25;100.00;52380.38;2181448;27;36821;-71
2024/04/19 03:19:35;;;;;;;8.00;6.60;;;;;;;-146.25;100.00;52402.66;2181683;27;36163;-72
2024/04/19 03:20:36;;;;;;;8.45;7.13;;;;;;;-146.25;100.00;52384.41;2181725;27;32779;-72
2024/04/19 03:21:38;;;;;;;11.70;7.43;;;;;;;-146.25;100.00;52400.63;2181706;27;36697;-73
2024/04/19 03:22:41;;;;;;;10.57;7.60;;;;;;;-146.25;100.00;52368.19;2181648;27;33278;-72
2024/04/19 03:23:46;;;;;;;10.18;7.63;;;;;;;-146.25;100.00;52412.81;2181976;27;35881;-72
2024/04/19 03:24:48;;;;;;;10.43;7.75;;;;;;;-146.25;100.00;52431.06;2181337;27;36455;-71
2024/04/19 03:25:57;;;;;;;9.73;7.68;;;;;;;-146.25;100.00;52386.44;2188453;26;37578;-69
2024/04/19 03:26:59;;;;;;;12.15;8.25;;;;;;;-146.25;100.00;52404.69;2195345;26;35125;-72
2024/04/19 03:28:01;;;;;;;11.30;7.95;;;;;;;-146.25;100.00;52376.31;2196026;26;36754;-72
2024/04/19 03:29:03;;;;;;;10.02;7.50;;;;;;;-146.25;100.00;52429.03;2196161;26;20002;-73
2024/04/19 03:30:05;;;;;;;9.13;8.15;;;;;;;-146.25;100.00;52380.38;2196314;26;37879;-72
2024/04/19 03:31:11;;;;;;;9.95;8.38;;;;;;;-146.25;100.00;52372.25;2195653;26;35334;-71
2024/04/19 03:32:15;;;;;;;10.07;8.45;;;;;;;-146.25;100.00;52388.47;2196935;26;37165;-71
2024/04/19 03:33:17;;;;;;;11.27;8.73;;;;;;;-146.25;100.00;52429.03;2196750;27;36564;-72
2024/04/19 03:34:19;;;;;;;11.25;8.85;;;;;;;-146.25;100.00;52354.00;2197487;26;33244;-72
2024/04/19 03:35:21;;;;;;;11.43;9.07;;;;;;;-146.25;100.00;52422.94;2196506;26;38146;-71
2024/04/19 03:36:23;;;;;;;13.48;9.25;;;;;;;-146.25;100.00;52370.22;2197299;26;30998;-72
2024/04/19 03:37:27;;;;;;;9.63;8.05;;;;;;;-146.25;100.00;52351.97;2196697;26;37294;-71
2024/04/19 03:38:29;;;;;;;12.05;8.48;;;;;;;-146.25;100.00;52364.13;2196987;27;36709;-72
2024/04/19 03:39:31;;;;;;;12.38;8.45;;;;;;;-146.25;100.00;52390.50;2196781;26;32599;-71
2024/04/19 03:40:33;;;;;;;13.63;9.68;;;;;;;-146.25;100.00;52402.66;2197084;26;34689;-71
2024/04/19 03:41:37;;;;;;;11.55;8.95;;;;;;;-146.25;100.00;52382.38;2196598;26;39795;-70
2024/04/19 03:42:47;;;;;;;11.80;9.13;;;;;;;-146.25;100.00;52420.91;2197670;26;19998;-73
2024/04/19 03:46:37;;;;;;;11.50;9.38;;;;;;;-146.25;100.00;52374.28;2196881;26;35891;-72
2024/04/19 03:47:39;;;;;;;15.55;10.50;;;;;;;-146.25;100.00;52396.59;2196286;26;36349;-72
2024/04/19 03:48:41;;;;;;;11.43;9.85;;;;;;;-146.25;100.00;52408.75;2197233;26;30500;-72
2024/04/19 03:49:42;;;;;;;12.02;10.40;;;;;;;-146.25;100.00;52370.22;2196875;26;35634;-71
2024/04/19 03:50:47;;;;;;;13.75;10.32;;;;;;;-146.25;100.00;52380.38;2197716;26;20009;-72
2024/04/19 03:51:49;;;;;;;12.27;10.98;;;;;;;-146.25;100.00;52408.75;2196821;26;35218;-71
2024/04/19 03:52:53;;;;;;;13.55;10.80;;;;;;;-146.25;100.00;52380.38;2196999;26;34590;-72
2024/04/19 03:53:55;;;;;;;11.82;10.10;;;;;;;-146.25;100.00;52382.38;2196739;26;35006;-71
2024/04/19 03:54:57;;;;;;;14.63;10.40;;;;;;;-146.25;100.00;52392.53;2196942;26;35334;-72
2024/04/19 03:55:58;;;;;;;14.73;11.10;;;;;;;-146.25;100.00;52378.34;2196934;26;32729;-71
2024/04/19 03:57:03;;;;;;;12.63;11.25;;;;;;;-146.25;100.00;52382.38;2197137;26;33516;-72
2024/04/19 03:58:05;;;;;;;14.90;10.93;;;;;;;-146.25;100.00;52400.63;2196769;26;35524;-71
2024/04/19 03:59:07;;;;;;;14.18;11.25;;;;;;;-146.25;100.00;52370.22;2197092;26;31450;-72
2024/04/19 04:00:09;;;;;;;12.63;10.70;;;;;;;-146.25;100.00;52356.03;2196678;26;34388;-71
2024/04/19 04:01:14;;;;;;;13.65;11.55;;;;;;;-146.25;100.00;52433.06;2197779;26;20006;-73
2024/04/19 04:02:16;;;;;;;14.05;11.18;;;;;;;-146.25;100.00;52388.47;2196721;26;35548;-72
2024/04/19 04:03:30;;;;;;;15.05;10.85;;;;;;;-146.25;100.00;52378.34;2197763;27;20006;-72
2024/04/19 04:04:31;;;;;;;16.25;11.98;;;;;;;-146.25;100.00;52376.31;2196919;26;31878;-71
2024/04/19 04:05:36;;;;;;;12.40;11.18;;;;;;;-146.25;100.00;52406.72;2196702;26;36313;-71
2024/04/19 04:06:41;;;;;;;14.30;11.95;;;;;;;-146.25;100.00;52390.50;2196684;26;33984;-71
2024/04/19 04:07:43;;;;;;;14.38;11.90;;;;;;;-146.25;100.00;52356.03;2196993;26;38168;-72
2024/04/19 04:08:50;;;;;;;15.55;11.35;;;;;;;-146.25;100.00;52396.59;2196741;26;32170;-70
2024/04/19 04:09:53;;;;;;;14.75;11.73;;;;;;;-146.25;100.00;52406.72;2197545;26;20025;-72
2024/04/19 04:11:00;;;;;;;14.50;11.93;;;;;;;-146.25;100.00;52384.41;2195770;26;36473;-71
2024/04/19 04:12:02;;;;;;;13.52;11.40;;;;;;;-146.25;100.00;52370.22;2197085;26;31382;-71
2024/04/19 04:13:04;;;;;;;13.13;11.00;;;;;;;-146.25;100.00;52384.41;2196727;26;34573;-72
2024/04/19 04:14:08;;;;;;;12.90;11.45;;;;;;;-146.25;100.00;52384.41;2197177;26;35399;-72
2024/04/19 04:15:10;;;;;;;13.80;11.98;;;;;;;-146.25;100.00;52414.84;2196513;27;35698;-71
2024/04/19 04:16:12;;;;;;;15.60;12.07;;;;;;;-146.25;100.00;52382.38;2197339;26;27951;-71
2024/04/19 04:17:16;;;;;;;13.77;11.77;;;;;;;-146.25;100.00;52412.81;2196562;26;37789;-71
2024/04/19 04:18:18;;;;;;;15.13;11.95;;;;;;;-146.25;100.00;52398.59;2196966;26;37987;-71
2024/04/19 04:19:23;;;;;;;14.07;11.65;;;;;;;-146.25;100.00;52386.44;2197101;26;20014;-71
2024/04/19 04:20:26;;;;;;;14.10;11.05;;;;;;;-146.25;100.00;52384.41;2198036;26;20006;-72
2024/04/19 04:21:27;;;;;;;14.90;11.70;;;;;;;-146.25;100.00;52392.53;2197361;26;20010;-72
2024/04/19 04:22:29;;;;;;;17.05;11.82;;;;;;;-146.25;100.00;52380.38;2197526;26;36055;-71
2024/04/19 04:23:32;;;;;;;13.68;10.68;;;;;;;-146.25;100.00;52392.53;2196681;26;32241;-71
2024/04/19 04:24:36;;;;;;;12.88;11.27;;;;;;;-146.25;100.00;52368.19;2197624;26;20006;-71
2024/04/19 04:25:40;;;;;;;13.45;11.82;;;;;;;-146.25;100.00;52390.50;2196478;26;34143;-71
2024/04/19 04:26:42;;;;;;;12.70;11.35;;;;;;;-146.25;100.00;52408.75;2197725;26;20873;-72
2024/04/19 04:27:44;;;;;;;14.75;11.43;;;;;;;-146.25;100.00;52410.78;2196263;26;36308;-71
2024/04/19 04:28:46;;;;;;;13.82;11.30;;;;;;;-146.25;100.00;52384.41;2197248;26;28769;-72
2024/04/19 04:29:50;;;;;;;13.85;11.20;;;;;;;-146.25;100.00;52364.13;2196510;26;33031;-72
2024/04/19 04:30:56;;;;;;;12.25;10.95;;;;;;;-146.25;100.00;52372.25;2197080;26;32197;-70
2024/04/19 04:31:58;;;;;;;12.45;11.15;;;;;;;-146.25;100.00;52410.78;2196578;26;34644;-72
2024/04/19 04:33:00;;;;;;;13.23;10.57;;;;;;;-146.25;100.00;52378.34;2196272;27;31800;-72
2024/04/19 04:34:02;;;;;;;13.80;10.73;;;;;;;-146.25;100.00;52404.69;2195578;26;37581;-71
2024/04/19 04:35:04;;;;;;;12.48;10.07;;;;;;;-146.25;100.00;52396.59;2196859;26;36539;-72
2024/04/19 04:36:06;;;;;;;12.50;11.00;;;;;;;-146.25;100.00;52372.25;2196526;26;33952;-72
2024/04/19 04:37:08;;;;;;;11.57;9.55;;;;;;;-146.25;100.00;52420.91;2197017;26;33546;-72
2024/04/19 04:38:12;;;;;;;11.77;10.25;;;;;;;-146.25;100.00;52392.53;2196429;26;37093;-73
2024/04/19 04:39:14;;;;;;;13.60;10.02;;;;;;;-146.25;100.00;52398.59;2196704;26;34853;-71
2024/04/19 04:40:16;;;;;;;11.75;9.93;;;;;;;-146.25;100.00;52420.91;2196499;26;35546;-72
2024/04/19 04:41:20;;;;;;;11.77;9.63;;;;;;;-146.25;100.00;52418.88;2197074;26;33895;-72
2024/04/19 04:42:22;;;;;;;12.23;9.55;;;;;;;-146.25;100.00;52380.38;2196569;26;37549;-72
2024/04/19 04:43:24;;;;;;;12.25;9.82;;;;;;;-146.25;100.00;52414.84;2196141;26;33950;-73
2024/04/19 04:44:32;;;;;;;11.10;9.65;;;;;;;-146.25;100.00;52374.28;2196280;26;28464;-72
2024/04/19 04:45:34;;;;;;;11.73;10.13;;;;;;;-146.25;100.00;52398.59;2196779;26;39328;-72
2024/04/19 04:46:37;;;;;;;12.00;9.95;;;;;;;-146.25;100.00;52429.03;2196465;26;34037;-72
2024/04/19 04:47:41;;;;;;;9.60;8.50;;;;;;;-146.25;100.00;52400.63;2196976;26;36057;-72
2024/04/19 04:48:43;;;;;;;10.15;9.15;;;;;;;-146.25;100.00;52400.63;2196603;26;32678;-72
2024/04/19 04:49:45;;;;;;;12.77;9.32;;;;;;;-146.25;100.00;52392.53;2197517;27;20002;-73
2024/04/19 04:50:47;;;;;;;10.43;9.32;;;;;;;-146.25;100.00;52412.81;2196425;26;37896;-72
2024/04/19 04:51:49;;;;;;;10.25;9.02;;;;;;;-146.25;100.00;52416.84;2197363;26;36095;-72
2024/04/19 04:52:51;;;;;;;11.77;9.82;;;;;;;-146.25;100.00;52386.44;2196451;26;34109;-72
2024/04/19 04:53:53;;;;;;;10.80;9.00;;;;;;;-146.25;100.00;52370.22;2196900;26;36202;-70
2024/04/19 04:54:55;;;;;;;10.40;9.30;;;;;;;-146.25;100.00;52380.38;2196509;27;35779;-72